createdAt,value
2022-11-17T00:37:26.933Z,9.9
2022-11-17T00:57:31.179Z,10.2
2022-11-17T01:07:33.779Z,10.2
2022-11-17T01:17:35.891Z,10.2
2022-11-17T01:27:37.677Z,10.3
2022-11-17T01:37:40.192Z,10.2
2022-11-17T01:47:42.285Z,10.2
2022-11-17T01:57:44.359Z,10.1
2022-11-17T02:07:46.101Z,10
2022-11-17T02:17:48.256Z,9.8
2022-11-17T02:27:50.788Z,9.7
2022-11-17T02:37:53.131Z,9.8
2022-11-17T03:07:59.460Z,9.7
2022-11-17T04:08:11.674Z,9.6
2022-11-17T04:18:14.204Z,9.7
2022-11-17T04:38:18.277Z,9.7
2022-11-17T04:58:22.531Z,9.9
2022-11-17T05:08:24.263Z,10
2022-11-17T05:18:26.451Z,10
2022-11-17T05:28:28.515Z,10
2022-11-17T05:58:35.043Z,9.9
2022-11-17T06:08:37.520Z,10
2022-11-17T06:18:39.635Z,10
2022-11-17T06:28:41.907Z,9.9
2022-11-17T06:38:43.576Z,9.7
2022-11-17T06:48:45.519Z,9.7
2022-11-17T06:58:47.493Z,9.7
2022-11-17T07:18:52.089Z,10
2022-11-17T07:28:53.720Z,10.1
2022-11-17T07:38:55.727Z,10.1
2022-11-17T07:48:57.623Z,10.1
2022-11-17T07:59:00.109Z,10.2
2022-11-17T08:09:02.050Z,10.2
2022-11-17T08:29:06.168Z,10.2
2022-11-17T08:39:08.161Z,10.2
2022-11-17T08:49:09.799Z,10.2
2022-11-17T08:59:12.226Z,10.1
2022-11-17T09:09:14.449Z,9.8
2022-11-17T09:19:16.672Z,9.9
2022-11-17T09:29:19.005Z,9.9
2022-11-17T09:39:21.227Z,10
2022-11-17T09:49:23.045Z,10.1
2022-11-17T09:59:24.937Z,10.5
2022-11-17T10:09:27.331Z,10.7
2022-11-17T10:19:29.231Z,10.7
2022-11-17T10:39:32.867Z,11
2022-11-17T10:49:35.298Z,11.1
2022-11-17T10:59:37.731Z,11.3
2022-11-17T11:09:39.659Z,11.4
2022-11-17T11:19:42.108Z,12
2022-11-17T11:29:44.125Z,12
2022-11-17T11:39:46.317Z,12
2022-11-17T11:49:48.421Z,12
2022-11-17T12:09:53.271Z,12
2022-11-17T12:19:55.729Z,11.8
2022-11-17T12:29:58.320Z,11.8
2022-11-17T12:50:02.694Z,11.6
2022-11-17T13:00:05.232Z,11.6
2022-11-17T13:10:07.587Z,11.7
2022-11-17T13:20:10.157Z,11.6
2022-11-17T13:30:12.467Z,11.5
2022-11-17T13:40:14.702Z,11.3
2022-11-17T13:50:16.784Z,11.4
2022-11-17T14:00:19.112Z,11.4
2022-11-17T14:10:21.337Z,11.2
2022-11-17T14:40:26.998Z,11.2
2022-11-17T14:50:29.454Z,11.1
2022-11-17T15:40:40.235Z,11
2022-11-17T15:50:42.077Z,10.9
2022-11-17T16:40:52.497Z,11.1
2022-11-17T17:00:56.943Z,10.6
2022-11-17T17:21:01.212Z,9.9
2022-11-17T18:31:16.705Z,9.8
2022-11-17T18:51:21.743Z,9.4
2022-11-17T19:01:24.357Z,9.7
2022-11-17T19:11:26.635Z,9.9
2022-11-17T19:21:29.037Z,9.9
2022-11-17T19:31:31.513Z,9.8
2022-11-17T19:41:55.587Z,9.9
2022-11-17T19:51:43.594Z,9.7
2022-11-17T20:11:47.372Z,9.6
2022-11-17T20:21:49.431Z,9.5
2022-11-17T20:31:51.129Z,9.4
2022-11-17T20:41:52.991Z,9.3
2022-11-17T20:51:54.815Z,9.3
2022-11-17T21:01:56.961Z,9.1
2022-11-17T21:22:00.697Z,8.9
2022-11-17T21:32:03.101Z,8.6
2022-11-17T21:42:05.427Z,8.5
2022-11-17T21:52:08.055Z,8.1
2022-11-17T22:12:12.697Z,7.9
2022-11-17T22:22:14.735Z,7.7
2022-11-17T22:32:16.672Z,7.7
2022-11-17T22:42:19.074Z,7.5
2022-11-17T22:52:20.964Z,7.3
2022-11-17T23:02:22.768Z,6.9
2022-11-17T23:12:24.804Z,6.6
2022-11-17T23:22:26.725Z,6.9
2022-11-17T23:32:28.425Z,7.3
2022-11-17T23:52:32.678Z,7.6
